createdAt,value
2023-04-16T00:01:19.165Z,14.29
2023-04-16T00:03:46.754Z,14.29
2023-04-16T00:06:14.569Z,14.29
2023-04-16T00:08:43.270Z,14.27
2023-04-16T00:11:10.454Z,14.30
2023-04-16T00:13:37.774Z,14.27
2023-04-16T00:16:05.576Z,14.29
2023-04-16T00:18:32.748Z,14.28
2023-04-16T00:20:59.911Z,14.26
2023-04-16T00:23:27.285Z,14.25
2023-04-16T00:25:55.793Z,14.29
2023-04-16T00:28:23.024Z,14.28
2023-04-16T00:30:50.281Z,14.31
2023-04-16T00:33:17.648Z,14.22
2023-04-16T00:35:45.967Z,14.21
2023-04-16T00:38:14.196Z,14.20
2023-04-16T00:40:41.246Z,14.23
2023-04-16T00:43:10.023Z,14.14
2023-04-16T00:45:37.225Z,14.17
2023-04-16T00:48:05.448Z,14.19
2023-04-16T00:50:33.754Z,14.19
2023-04-16T00:53:02.340Z,14.22
2023-04-16T00:55:29.907Z,14.20
2023-04-16T00:57:56.968Z,14.19
2023-04-16T01:00:25.710Z,14.19
2023-04-16T01:02:53.998Z,14.21
2023-04-16T01:05:21.628Z,14.19
2023-04-16T01:07:48.801Z,14.22
2023-04-16T01:10:15.827Z,14.23
2023-04-16T01:12:43.039Z,14.24
2023-04-16T01:15:11.190Z,14.25
2023-04-16T01:17:39.868Z,14.29
2023-04-16T01:20:07.590Z,14.36
2023-04-16T01:22:36.110Z,14.44
2023-04-16T01:25:03.433Z,14.44
2023-04-16T01:27:30.596Z,14.45
2023-04-16T01:29:57.687Z,14.44
2023-04-16T01:32:24.949Z,14.49
2023-04-16T01:34:52.214Z,14.47
2023-04-16T01:37:19.351Z,14.43
2023-04-16T01:39:47.831Z,14.38
2023-04-16T01:42:14.852Z,14.42
2023-04-16T01:44:41.952Z,14.44
2023-04-16T01:47:09.081Z,14.57
2023-04-16T01:49:36.252Z,15.86
2023-04-16T01:52:03.412Z,15.93
2023-04-16T01:54:30.833Z,16.15
2023-04-16T01:56:59.312Z,16.27
2023-04-16T01:59:26.356Z,16.49
2023-04-16T02:01:53.943Z,16.61
2023-04-16T02:04:21.171Z,16.91
2023-04-16T02:06:48.279Z,17.08
2023-04-16T02:09:15.520Z,17.14
2023-04-16T02:11:42.558Z,17.43
2023-04-16T02:14:11.032Z,17.61
2023-04-16T02:16:38.147Z,17.76
2023-04-16T02:19:05.391Z,17.89
2023-04-16T02:21:32.506Z,17.95
2023-04-16T02:23:59.584Z,17.93
2023-04-16T02:26:26.615Z,17.97
2023-04-16T02:28:53.690Z,18.02
2023-04-16T02:31:22.271Z,18.08
2023-04-16T02:33:49.485Z,18.07
2023-04-16T02:36:16.624Z,18.10
2023-04-16T02:38:43.686Z,18.10
2023-04-16T02:41:10.768Z,18.02
2023-04-16T02:43:38.128Z,18.22
2023-04-16T02:46:05.324Z,18.21
2023-04-16T02:48:33.931Z,18.13
2023-04-16T02:51:01.146Z,18.05
2023-04-16T02:53:28.285Z,17.98
2023-04-16T02:55:56.579Z,17.94
2023-04-16T02:58:25.422Z,17.84
2023-04-16T03:00:54.059Z,17.88
2023-04-16T03:03:21.818Z,17.83
2023-04-16T03:05:50.610Z,17.83
2023-04-16T03:08:17.785Z,17.97
2023-04-16T03:10:44.830Z,17.96
2023-04-16T03:13:11.990Z,18.05
2023-04-16T03:15:39.181Z,18.00
2023-04-16T03:18:06.237Z,17.97
2023-04-16T03:20:33.791Z,17.93
2023-04-16T03:23:02.503Z,17.96
2023-04-16T03:25:29.597Z,17.95
2023-04-16T03:27:56.842Z,17.98
2023-04-16T03:30:23.992Z,17.86
2023-04-16T03:32:51.101Z,17.91
2023-04-16T03:35:18.409Z,17.94
2023-04-16T03:37:45.471Z,17.87
2023-04-16T03:40:14.627Z,17.83
2023-04-16T03:42:41.715Z,17.78
2023-04-16T03:45:09.668Z,17.76
2023-04-16T03:47:36.897Z,17.76
2023-04-16T03:50:04.519Z,17.94
2023-04-16T03:52:31.910Z,17.86
2023-04-16T03:54:58.996Z,17.76
2023-04-16T03:57:27.524Z,17.71
2023-04-16T03:59:54.650Z,17.82
2023-04-16T04:02:21.860Z,17.95
2023-04-16T04:04:49.210Z,17.82
2023-04-16T04:07:16.631Z,17.71
2023-04-16T04:09:43.690Z,17.64
2023-04-16T04:12:10.770Z,17.59
2023-04-16T04:14:39.434Z,17.55
2023-04-16T04:17:06.760Z,17.69
2023-04-16T04:19:33.919Z,17.62
2023-04-16T04:22:01.031Z,17.60
2023-04-16T04:24:28.230Z,17.77
2023-04-16T04:26:55.436Z,17.84
2023-04-16T04:29:22.594Z,17.82
2023-04-16T04:31:51.445Z,17.87
2023-04-16T04:34:19.086Z,17.94
2023-04-16T04:36:46.162Z,17.99
2023-04-16T04:39:13.509Z,17.85
2023-04-16T04:41:40.615Z,17.77
2023-04-16T04:44:07.928Z,17.77
2023-04-16T04:46:35.119Z,17.64
2023-04-16T04:49:03.827Z,17.76
2023-04-16T04:51:30.977Z,17.68
2023-04-16T04:53:58.430Z,17.68
2023-04-16T04:56:25.468Z,17.70
2023-04-16T04:58:52.854Z,17.65
2023-04-16T05:01:20.123Z,17.67
2023-04-16T05:03:47.426Z,17.63
2023-04-16T05:06:16.749Z,17.62
2023-04-16T05:08:43.889Z,17.62
2023-04-16T05:11:10.984Z,17.54
2023-04-16T05:13:38.129Z,17.54
2023-04-16T05:16:06.206Z,17.55
2023-04-16T05:18:33.353Z,17.48
2023-04-16T05:21:00.752Z,17.49
2023-04-16T05:23:29.256Z,17.50
2023-04-16T05:25:56.376Z,17.59
2023-04-16T05:28:23.531Z,17.58
2023-04-16T05:30:51.263Z,17.65
2023-04-16T05:33:18.390Z,17.69
2023-04-16T05:35:45.479Z,17.75
2023-04-16T05:38:12.673Z,17.74
2023-04-16T05:40:41.329Z,17.63
2023-04-16T05:43:08.413Z,17.81
2023-04-16T05:45:35.446Z,17.91
2023-04-16T05:48:02.522Z,17.88
2023-04-16T05:50:29.632Z,17.79
2023-04-16T05:52:56.733Z,17.71
2023-04-16T05:55:24.006Z,17.69
2023-04-16T05:57:52.510Z,17.65
2023-04-16T06:00:19.766Z,17.64
2023-04-16T06:02:47.028Z,17.67
2023-04-16T06:05:14.529Z,17.70
2023-04-16T06:07:41.728Z,17.65
2023-04-16T06:10:09.806Z,17.65
2023-04-16T06:12:36.908Z,17.59
2023-04-16T06:15:07.239Z,17.72
2023-04-16T06:17:34.373Z,17.68
2023-04-16T06:20:01.531Z,17.65
2023-04-16T06:22:29.585Z,17.71
2023-04-16T06:24:56.738Z,17.82
2023-04-16T06:27:23.929Z,17.73
2023-04-16T06:29:51.007Z,17.80
2023-04-16T06:32:19.862Z,17.73
2023-04-16T06:34:47.090Z,17.74
2023-04-16T06:37:14.128Z,17.75
2023-04-16T06:39:41.231Z,17.85
2023-04-16T06:42:08.480Z,17.86
2023-04-16T06:44:35.877Z,17.70
2023-04-16T06:47:03.152Z,17.71
2023-04-16T06:49:31.685Z,17.70
2023-04-16T06:51:58.952Z,17.79
2023-04-16T06:54:26.189Z,17.83
2023-04-16T06:56:53.307Z,17.84
2023-04-16T06:59:20.306Z,17.90
2023-04-16T07:01:47.594Z,17.89
2023-04-16T07:04:14.963Z,17.98
2023-04-16T07:06:43.627Z,17.94
2023-04-16T07:09:11.147Z,18.03
2023-04-16T07:11:38.597Z,18.07
2023-04-16T07:14:05.848Z,18.15
2023-04-16T07:16:33.028Z,17.99
2023-04-16T07:19:00.384Z,18.00
2023-04-16T07:21:27.548Z,18.06
2023-04-16T07:23:56.169Z,18.03
2023-04-16T07:26:23.251Z,18.08
2023-04-16T07:28:50.390Z,18.06
2023-04-16T07:31:17.698Z,18.08
2023-04-16T07:33:46.291Z,18.01
2023-04-16T07:36:13.385Z,17.96
2023-04-16T07:38:40.452Z,17.93
2023-04-16T07:41:09.289Z,17.91
2023-04-16T07:43:37.071Z,17.88
2023-04-16T07:46:04.462Z,17.88
2023-04-16T07:48:31.609Z,17.81
2023-04-16T07:50:58.922Z,17.89
2023-04-16T07:53:26.049Z,17.84
2023-04-16T07:55:53.128Z,17.90
2023-04-16T07:58:21.830Z,17.94
2023-04-16T08:00:50.881Z,17.98
2023-04-16T08:03:18.645Z,18.02
2023-04-16T08:05:45.909Z,18.00
2023-04-16T08:08:13.194Z,18.02
2023-04-16T08:10:40.326Z,18.00
2023-04-16T08:13:07.374Z,18.07
2023-04-16T08:15:35.970Z,18.06
2023-04-16T08:18:03.398Z,18.02
2023-04-16T08:20:30.729Z,18.09
2023-04-16T08:22:57.808Z,18.11
2023-04-16T08:25:24.926Z,18.03
2023-04-16T08:27:52.050Z,18.03
2023-04-16T08:30:19.353Z,18.09
2023-04-16T08:32:50.051Z,18.11
2023-04-16T08:35:17.581Z,18.12
2023-04-16T08:37:44.792Z,18.21
2023-04-16T08:40:12.586Z,18.25
2023-04-16T08:42:44.974Z,18.29
2023-04-16T08:45:16.851Z,18.25
2023-04-16T08:47:49.104Z,18.24
2023-04-16T08:50:17.733Z,18.16
2023-04-16T08:52:51.228Z,18.15
2023-04-16T08:55:22.239Z,18.09
2023-04-16T08:57:55.049Z,18.05
2023-04-16T09:00:22.948Z,18.04
2023-04-16T09:02:52.478Z,18.11
2023-04-16T09:05:20.621Z,18.05
2023-04-16T09:07:48.810Z,18.07
2023-04-16T09:10:16.041Z,18.16
2023-04-16T09:12:43.989Z,18.12
2023-04-16T09:15:13.258Z,18.20
2023-04-16T09:17:40.794Z,18.17
2023-04-16T09:20:10.567Z,18.29
2023-04-16T09:22:38.481Z,18.33
2023-04-16T09:25:07.331Z,18.32
2023-04-16T09:27:34.737Z,18.25
2023-04-16T09:30:01.871Z,18.21
2023-04-16T09:32:29.411Z,18.32
2023-04-16T09:34:58.815Z,18.39
2023-04-16T09:37:29.289Z,18.41
2023-04-16T09:39:58.552Z,18.37
2023-04-16T09:42:28.285Z,18.42
2023-04-16T09:44:59.389Z,18.37
2023-04-16T09:47:39.965Z,18.30
2023-04-16T09:50:08.429Z,18.26
2023-04-16T09:52:38.031Z,18.31
2023-04-16T09:55:06.216Z,18.31
2023-04-16T09:57:33.421Z,18.25
2023-04-16T10:00:04.192Z,18.24
2023-04-16T10:02:31.710Z,18.24
2023-04-16T10:05:01.888Z,18.19
2023-04-16T10:07:33.330Z,18.21
2023-04-16T10:10:03.813Z,18.28
2023-04-16T10:12:31.274Z,18.28
2023-04-16T10:14:58.541Z,18.28
2023-04-16T10:17:26.979Z,18.19
2023-04-16T10:19:55.471Z,18.20
2023-04-16T10:22:22.806Z,18.18
2023-04-16T10:24:51.135Z,18.08
2023-04-16T10:27:20.661Z,18.14
2023-04-16T10:29:50.043Z,18.13
2023-04-16T10:32:19.447Z,18.16
2023-04-16T10:34:48.552Z,18.07
2023-04-16T10:37:16.692Z,18.16
2023-04-16T10:39:43.862Z,18.23
2023-04-16T10:42:12.310Z,18.25
2023-04-16T10:44:45.238Z,18.22
2023-04-16T10:47:14.424Z,18.25
2023-04-16T10:49:42.361Z,18.13
2023-04-16T10:52:12.269Z,17.89
2023-04-16T10:54:40.721Z,17.83
2023-04-16T10:57:10.712Z,17.80
2023-04-16T10:59:38.566Z,17.69
2023-04-16T11:02:13.079Z,17.47
2023-04-16T11:04:43.973Z,17.45
2023-04-16T11:07:19.862Z,17.41
2023-04-16T11:09:52.835Z,17.41
2023-04-16T11:12:21.491Z,17.44
2023-04-16T11:14:51.109Z,17.48
2023-04-16T11:17:20.682Z,17.46
2023-04-16T11:19:47.975Z,17.42
2023-04-16T11:22:17.685Z,17.39
2023-04-16T11:24:46.360Z,17.34
2023-04-16T11:27:15.247Z,17.29
2023-04-16T11:29:42.863Z,17.26
2023-04-16T11:32:10.807Z,17.31
2023-04-16T11:34:47.384Z,17.27
2023-04-16T11:37:14.648Z,17.20
2023-04-16T11:39:51.544Z,17.33
2023-04-16T11:42:23.023Z,17.35
2023-04-16T11:44:54.536Z,17.38
2023-04-16T11:47:22.616Z,17.40
2023-04-16T11:49:51.908Z,17.44
2023-04-16T11:52:30.307Z,17.48
2023-04-16T11:54:58.550Z,17.55
2023-04-16T11:57:27.289Z,17.63
2023-04-16T12:00:02.098Z,17.71
2023-04-16T12:02:38.429Z,17.82
2023-04-16T12:05:25.769Z,17.63
2023-04-16T12:07:53.149Z,17.68
2023-04-16T12:10:20.374Z,17.74
2023-04-16T12:12:47.491Z,17.60
2023-04-16T12:15:15.089Z,17.68
2023-04-16T12:17:42.294Z,17.72
2023-04-16T12:20:13.724Z,17.78
2023-04-16T12:22:45.842Z,17.80
2023-04-16T12:25:15.165Z,17.73
2023-04-16T12:27:44.510Z,17.82
2023-04-16T12:30:12.829Z,17.76
2023-04-16T12:32:41.088Z,17.72
2023-04-16T12:35:10.757Z,17.72
2023-04-16T12:37:38.666Z,17.77
2023-04-16T12:40:07.145Z,17.74
2023-04-16T12:42:34.709Z,17.75
2023-04-16T12:45:02.669Z,17.69
2023-04-16T12:47:29.910Z,17.81
2023-04-16T12:49:57.295Z,17.72
2023-04-16T12:52:26.529Z,17.76
2023-04-16T12:54:53.896Z,17.79
2023-04-16T12:57:21.258Z,17.81
2023-04-16T12:59:48.310Z,17.90
2023-04-16T13:02:15.491Z,17.98
2023-04-16T13:04:42.783Z,18.02
2023-04-16T13:07:10.095Z,17.90
2023-04-16T13:09:40.000Z,17.92
2023-04-16T13:12:07.867Z,18.03
2023-04-16T13:14:35.154Z,18.12
2023-04-16T13:17:02.253Z,18.11
2023-04-16T13:19:29.419Z,17.94
2023-04-16T13:21:56.913Z,17.80
2023-04-16T13:24:24.771Z,17.88
2023-04-16T13:26:53.392Z,17.91
2023-04-16T13:29:20.875Z,17.84
2023-04-16T13:31:48.869Z,17.79
2023-04-16T13:34:16.154Z,17.63
2023-04-16T13:36:43.327Z,17.66
2023-04-16T13:39:10.562Z,17.69
2023-04-16T13:41:38.209Z,17.63
2023-04-16T13:44:06.728Z,17.55
2023-04-16T13:46:34.198Z,17.53
2023-04-16T13:49:01.670Z,17.52
2023-04-16T13:51:29.031Z,17.48
2023-04-16T13:53:56.208Z,17.46
2023-04-16T13:56:23.582Z,17.46
2023-04-16T13:58:50.848Z,17.42
2023-04-16T14:01:19.669Z,17.45
2023-04-16T14:03:46.909Z,17.55
2023-04-16T14:06:14.172Z,17.42
2023-04-16T14:08:41.352Z,17.39
2023-04-16T14:11:08.687Z,17.37
2023-04-16T14:13:35.924Z,17.23
2023-04-16T14:16:03.694Z,17.18
2023-04-16T14:18:32.412Z,17.14
2023-04-16T14:20:59.548Z,17.10
2023-04-16T14:23:26.771Z,17.02
2023-04-16T14:25:53.886Z,16.96
2023-04-16T14:28:21.130Z,17.04
2023-04-16T14:30:48.508Z,16.97
2023-04-16T14:33:15.788Z,17.48
2023-04-16T14:35:44.427Z,17.31
2023-04-16T14:38:11.976Z,17.29
2023-04-16T14:40:39.208Z,16.93
2023-04-16T14:43:06.287Z,17.01
2023-04-16T14:45:33.553Z,17.03
2023-04-16T14:48:00.793Z,17.05
2023-04-16T14:50:28.148Z,17.08
2023-04-16T14:52:56.728Z,17.06
2023-04-16T14:55:24.223Z,17.05
2023-04-16T14:57:51.635Z,17.10
2023-04-16T15:00:19.192Z,17.14
2023-04-16T15:02:46.639Z,17.23
2023-04-16T15:05:13.915Z,17.28
2023-04-16T15:07:41.047Z,17.36
2023-04-16T15:10:10.199Z,17.40
2023-04-16T15:12:37.957Z,17.40
2023-04-16T15:15:06.304Z,17.37
2023-04-16T15:17:33.895Z,17.31
2023-04-16T15:20:01.038Z,17.34
2023-04-16T15:22:28.311Z,17.26
2023-04-16T15:24:55.436Z,17.41
2023-04-16T15:27:24.012Z,17.38
2023-04-16T15:29:51.395Z,17.52
2023-04-16T15:32:18.675Z,17.53
2023-04-16T15:34:45.851Z,17.56
2023-04-16T15:37:13.067Z,17.50
2023-04-16T15:39:40.250Z,17.37
2023-04-16T15:42:08.247Z,17.36
2023-04-16T15:44:37.031Z,17.29
2023-04-16T15:47:04.710Z,17.08
2023-04-16T15:49:31.850Z,17.04
2023-04-16T15:51:59.156Z,17.13
2023-04-16T15:54:26.343Z,17.06
2023-04-16T15:56:53.595Z,17.15
2023-04-16T15:59:20.765Z,17.15
2023-04-16T16:01:49.371Z,17.10
2023-04-16T16:04:16.721Z,17.22
2023-04-16T16:06:43.952Z,17.26
2023-04-16T16:09:11.780Z,17.30
2023-04-16T16:11:39.212Z,17.28
2023-04-16T16:14:06.375Z,17.32
2023-04-16T16:16:33.674Z,17.12
2023-04-16T16:19:02.319Z,17.18
2023-04-16T16:21:30.337Z,17.06
2023-04-16T16:23:57.594Z,17.14
2023-04-16T16:26:24.809Z,17.07
2023-04-16T16:28:52.076Z,17.06
2023-04-16T16:31:19.196Z,17.05
2023-04-16T16:33:46.421Z,17.11
2023-04-16T16:36:15.514Z,17.20
2023-04-16T16:38:42.793Z,17.06
2023-04-16T16:41:10.127Z,17.03
2023-04-16T16:43:37.481Z,17.12
2023-04-16T16:46:06.039Z,17.16
2023-04-16T16:48:33.351Z,17.18
2023-04-16T16:51:00.552Z,17.15
2023-04-16T16:53:29.193Z,17.06
2023-04-16T16:55:56.471Z,17.06
2023-04-16T16:58:23.549Z,17.08
2023-04-16T17:00:50.848Z,16.91
2023-04-16T17:03:18.104Z,16.67
2023-04-16T17:05:45.431Z,16.70
2023-04-16T17:08:12.711Z,16.59
2023-04-16T17:10:41.328Z,16.74
2023-04-16T17:13:08.396Z,16.75
2023-04-16T17:15:35.599Z,16.80
2023-04-16T17:18:02.720Z,16.79
2023-04-16T17:20:29.855Z,16.70
2023-04-16T17:22:57.011Z,16.62
2023-04-16T17:25:24.056Z,16.71
2023-04-16T17:27:52.601Z,16.73
2023-04-16T17:30:20.116Z,16.60
2023-04-16T17:32:47.245Z,16.68
2023-04-16T17:35:14.435Z,16.68
2023-04-16T17:37:41.554Z,16.70
2023-04-16T17:40:09.858Z,16.71
2023-04-16T17:42:37.524Z,16.70
2023-04-16T17:45:07.199Z,16.63
2023-04-16T17:47:36.736Z,16.60
2023-04-16T17:50:05.586Z,16.58
2023-04-16T17:52:32.959Z,16.54
2023-04-16T17:55:00.534Z,16.51
2023-04-16T17:57:28.078Z,16.55
2023-04-16T17:59:55.708Z,16.56
2023-04-16T18:02:24.581Z,16.54
2023-04-16T18:04:52.107Z,16.49
2023-04-16T18:07:19.781Z,15.86
2023-04-16T18:09:47.170Z,16.12
2023-04-16T18:12:14.570Z,16.10
2023-04-16T18:14:41.749Z,15.87
2023-04-16T18:17:09.633Z,15.84
2023-04-16T18:19:38.657Z,15.95
2023-04-16T18:22:06.492Z,15.86
2023-04-16T18:24:33.969Z,15.90
2023-04-16T18:27:01.693Z,15.90
2023-04-16T18:29:29.379Z,15.84
2023-04-16T18:31:56.631Z,15.99
2023-04-16T18:34:24.182Z,16.14
2023-04-16T18:36:52.808Z,16.07
2023-04-16T18:39:20.409Z,16.10
2023-04-16T18:41:49.365Z,16.13
2023-04-16T18:44:16.727Z,16.15
2023-04-16T18:46:43.881Z,16.11
2023-04-16T18:49:11.417Z,16.10
2023-04-16T18:51:39.649Z,16.16
2023-04-16T18:54:08.379Z,16.13
2023-04-16T18:56:35.694Z,16.06
2023-04-16T18:59:03.845Z,16.05
2023-04-16T19:01:31.118Z,16.00
2023-04-16T19:03:58.444Z,15.99
2023-04-16T19:06:29.169Z,16.01
2023-04-16T19:08:56.408Z,16.00
2023-04-16T19:11:25.597Z,15.75
2023-04-16T19:13:53.194Z,15.56
2023-04-16T19:16:20.426Z,15.51
2023-04-16T19:18:52.392Z,15.81
2023-04-16T19:21:19.872Z,15.87
2023-04-16T19:23:47.128Z,15.91
2023-04-16T19:26:14.383Z,15.77
2023-04-16T19:28:43.166Z,15.94
2023-04-16T19:31:10.592Z,15.97
2023-04-16T19:33:38.240Z,16.05
2023-04-16T19:36:05.688Z,15.98
2023-04-16T19:38:32.916Z,15.96
2023-04-16T19:41:00.213Z,15.98
2023-04-16T19:43:30.387Z,15.96
2023-04-16T19:45:59.643Z,15.96
2023-04-16T19:48:27.062Z,15.95
2023-04-16T19:50:54.288Z,15.90
2023-04-16T19:53:21.432Z,15.95
2023-04-16T19:55:48.647Z,15.92
2023-04-16T19:58:15.947Z,15.93
2023-04-16T20:00:43.540Z,15.95
2023-04-16T20:03:12.539Z,15.90
2023-04-16T20:05:39.814Z,15.89
2023-04-16T20:08:07.109Z,15.89
2023-04-16T20:10:34.227Z,15.87
2023-04-16T20:13:01.835Z,15.85
2023-04-16T20:15:29.249Z,15.90
2023-04-16T20:17:56.511Z,15.99
2023-04-16T20:20:25.165Z,16.02
2023-04-16T20:22:52.304Z,15.95
2023-04-16T20:25:19.834Z,15.84
2023-04-16T20:27:47.203Z,15.72
2023-04-16T20:30:14.678Z,15.84
2023-04-16T20:32:41.845Z,15.85
2023-04-16T20:35:10.299Z,15.87
2023-04-16T20:37:39.799Z,15.86
2023-04-16T20:40:08.652Z,15.81
2023-04-16T20:42:36.089Z,15.79
2023-04-16T20:45:03.501Z,15.82
2023-04-16T20:47:30.628Z,15.76
2023-04-16T20:49:57.844Z,15.81
2023-04-16T20:52:25.042Z,15.81
2023-04-16T20:54:53.807Z,15.75
2023-04-16T20:57:20.921Z,15.75
2023-04-16T20:59:48.087Z,15.75
2023-04-16T21:02:15.482Z,15.62
2023-04-16T21:04:43.070Z,15.67
2023-04-16T21:07:10.207Z,15.60
2023-04-16T21:09:37.354Z,15.58
2023-04-16T21:12:06.595Z,15.61
2023-04-16T21:14:33.807Z,15.71
2023-04-16T21:17:00.849Z,15.70
2023-04-16T21:19:27.982Z,16.38
2023-04-16T21:21:55.130Z,18.08
2023-04-16T21:24:22.346Z,18.81
2023-04-16T21:26:49.504Z,19.38
2023-04-16T21:29:17.995Z,19.07
2023-04-16T21:31:45.215Z,17.89
2023-04-16T21:34:12.446Z,17.48
2023-04-16T21:36:39.631Z,17.23
2023-04-16T21:39:06.686Z,16.93
2023-04-16T21:41:33.908Z,16.70
2023-04-16T21:44:01.013Z,16.43
2023-04-16T21:46:29.737Z,16.21
2023-04-16T21:48:56.945Z,16.24
2023-04-16T21:51:24.073Z,16.26
2023-04-16T21:53:51.367Z,15.98
2023-04-16T21:56:18.528Z,16.05
2023-04-16T21:58:45.571Z,15.73
2023-04-16T22:01:12.770Z,15.80
2023-04-16T22:03:41.781Z,15.81
2023-04-16T22:06:08.966Z,15.79
2023-04-16T22:08:36.110Z,15.52
2023-04-16T22:11:03.671Z,15.39
2023-04-16T22:13:31.163Z,15.52
2023-04-16T22:15:59.532Z,15.63
2023-04-16T22:18:26.949Z,15.46
2023-04-16T22:20:56.206Z,15.61
2023-04-16T22:23:23.945Z,15.53
2023-04-16T22:25:55.236Z,15.47
2023-04-16T22:28:22.687Z,15.54
2023-04-16T22:30:50.384Z,15.52
2023-04-16T22:33:17.617Z,15.62
2023-04-16T22:35:44.817Z,15.60
2023-04-16T22:38:13.542Z,15.46
2023-04-16T22:40:40.731Z,15.63
2023-04-16T22:43:07.856Z,15.48
2023-04-16T22:45:35.206Z,15.41
2023-04-16T22:48:02.358Z,15.48
2023-04-16T22:50:29.603Z,15.56
2023-04-16T22:52:56.805Z,15.48
2023-04-16T22:55:25.545Z,15.61
2023-04-16T22:57:52.721Z,15.57
2023-04-16T23:00:19.986Z,15.46
2023-04-16T23:02:47.190Z,15.61
2023-04-16T23:05:14.265Z,15.25
2023-04-16T23:07:41.668Z,15.27
2023-04-16T23:10:09.287Z,15.01
2023-04-16T23:12:37.861Z,14.88
2023-04-16T23:15:06.230Z,15.23
2023-04-16T23:17:33.525Z,15.39
2023-04-16T23:20:00.728Z,15.43
2023-04-16T23:22:28.026Z,15.49
2023-04-16T23:24:55.253Z,15.33
2023-04-16T23:27:22.548Z,15.12
2023-04-16T23:29:51.151Z,15.22
2023-04-16T23:32:18.332Z,15.27
2023-04-16T23:34:45.594Z,15.35
2023-04-16T23:37:12.746Z,15.21
2023-04-16T23:39:39.919Z,15.20
2023-04-16T23:42:07.113Z,15.17
2023-04-16T23:44:34.279Z,14.80
2023-04-16T23:47:02.955Z,14.48
2023-04-16T23:49:30.422Z,14.76
2023-04-16T23:51:57.664Z,14.91
2023-04-16T23:54:24.787Z,14.61
2023-04-16T23:56:51.826Z,14.80
2023-04-16T23:59:19.358Z,14.73
